createdAt,value
2017-12-12T00:00:08.120Z,960.95
2017-12-12T00:01:15.218Z,960.91
2017-12-12T00:02:22.308Z,961.05
2017-12-12T00:03:29.374Z,961.16
2017-12-12T00:04:36.278Z,961.31
2017-12-12T00:05:43.345Z,961.40
2017-12-12T00:06:50.438Z,961.33
2017-12-12T00:07:57.412Z,961.41
2017-12-12T00:09:04.404Z,961.48
2017-12-12T00:10:11.417Z,961.50
2017-12-12T00:11:18.357Z,961.44
2017-12-12T00:12:25.376Z,961.60
2017-12-12T00:13:32.409Z,961.58
2017-12-12T00:14:39.543Z,961.65
2017-12-12T00:15:46.721Z,961.65
2017-12-12T00:16:53.709Z,961.72
2017-12-12T00:18:00.873Z,961.69
2017-12-12T00:19:07.929Z,961.88
2017-12-12T00:20:14.896Z,961.90
2017-12-12T00:21:21.864Z,962.02
2017-12-12T00:22:29.001Z,962.00
2017-12-12T00:23:35.856Z,962.15
2017-12-12T00:24:42.861Z,962.21
2017-12-12T00:25:49.878Z,962.19
2017-12-12T00:27:02.080Z,962.30
2017-12-12T00:28:09.330Z,962.30
2017-12-12T00:29:16.232Z,962.44
2017-12-12T00:30:17.673Z,962.37
2017-12-12T00:31:25.120Z,962.51
2017-12-12T00:32:31.827Z,962.50
2017-12-12T00:33:38.484Z,962.61
2017-12-12T00:34:45.502Z,962.66
2017-12-12T00:35:53.336Z,962.75
2017-12-12T00:36:59.575Z,962.83
2017-12-12T00:38:06.140Z,962.80
2017-12-12T00:39:13.174Z,962.83
2017-12-12T00:40:20.261Z,962.96
2017-12-12T00:41:27.052Z,962.93
2017-12-12T00:42:34.329Z,963.10
2017-12-12T00:43:41.205Z,963.23
2017-12-12T00:44:48.148Z,963.22
2017-12-12T00:45:55.332Z,963.17
2017-12-12T00:47:02.372Z,963.25
2017-12-12T00:48:09.390Z,963.28
2017-12-12T00:49:16.636Z,963.39
2017-12-12T00:50:23.760Z,963.30
2017-12-12T00:51:30.888Z,963.41
2017-12-12T00:52:37.437Z,963.39
2017-12-12T00:53:44.232Z,963.41
2017-12-12T00:54:51.330Z,963.36
2017-12-12T00:55:58.276Z,963.52
2017-12-12T00:57:05.325Z,963.54
2017-12-12T00:58:12.354Z,963.65
2017-12-12T00:59:19.118Z,963.61
2017-12-12T01:00:26.252Z,963.71
2017-12-12T01:01:32.932Z,963.66
2017-12-12T01:02:39.876Z,963.78
2017-12-12T01:03:46.869Z,963.79
2017-12-12T01:04:53.960Z,963.78
2017-12-12T01:06:00.991Z,963.87
2017-12-12T01:07:08.095Z,963.86
2017-12-12T01:08:15.108Z,963.95
2017-12-12T01:09:22.001Z,963.90
2017-12-12T01:10:29.235Z,963.95
2017-12-12T01:11:36.170Z,963.90
2017-12-12T01:12:43.251Z,963.95
2017-12-12T01:13:50.233Z,963.99
2017-12-12T01:14:57.273Z,964.02
2017-12-12T01:16:04.380Z,964.09
2017-12-12T01:17:11.417Z,964.22
2017-12-12T01:18:18.393Z,964.19
2017-12-12T01:19:25.529Z,964.21
2017-12-12T01:20:32.211Z,964.33
2017-12-12T01:21:39.101Z,964.44
2017-12-12T01:22:46.192Z,964.51
2017-12-12T01:23:53.236Z,964.42
2017-12-12T01:25:00.141Z,964.46
2017-12-12T01:26:07.196Z,964.55
2017-12-12T01:27:14.088Z,964.64
2017-12-12T01:28:20.618Z,964.67
2017-12-12T01:29:27.520Z,964.71
2017-12-12T01:30:34.660Z,964.75
2017-12-12T01:31:41.652Z,964.85
2017-12-12T01:32:48.784Z,964.88
2017-12-12T01:33:55.917Z,964.95
2017-12-12T01:35:02.920Z,964.98
2017-12-12T01:36:09.999Z,964.91
2017-12-12T01:37:16.922Z,965.11
2017-12-12T01:38:24.108Z,965.10
2017-12-12T01:39:31.132Z,965.16
2017-12-12T01:40:37.909Z,965.33
2017-12-12T01:41:44.609Z,965.26
2017-12-12T01:42:51.750Z,965.38
2017-12-12T01:43:58.920Z,965.39
2017-12-12T01:45:05.836Z,965.46
2017-12-12T01:46:12.518Z,965.57
2017-12-12T01:47:19.744Z,965.59
2017-12-12T01:48:26.890Z,965.61
2017-12-12T01:49:33.421Z,965.71
2017-12-12T01:50:40.504Z,965.71
2017-12-12T01:51:47.701Z,965.80
2017-12-12T01:52:54.372Z,965.79
2017-12-12T01:54:01.201Z,965.83
2017-12-12T01:55:08.093Z,965.86
2017-12-12T01:56:15.301Z,965.92
2017-12-12T01:57:22.450Z,966.06
2017-12-12T01:58:29.277Z,966.06
2017-12-12T01:59:36.297Z,966.10
2017-12-12T02:00:43.367Z,966.13
2017-12-12T02:01:50.369Z,966.14
2017-12-12T02:02:57.309Z,966.26
2017-12-12T02:04:04.284Z,966.22
2017-12-12T02:05:11.413Z,966.25
2017-12-12T02:06:18.547Z,966.29
2017-12-12T02:07:25.144Z,966.33
2017-12-12T02:08:32.275Z,966.34
2017-12-12T02:09:39.416Z,966.46
2017-12-12T02:10:46.480Z,966.43
2017-12-12T02:11:53.758Z,966.52
2017-12-12T02:13:00.264Z,966.58
2017-12-12T02:14:06.905Z,966.59
2017-12-12T02:15:14.073Z,966.60
2017-12-12T02:16:21.244Z,966.69
2017-12-12T02:17:28.281Z,966.73
2017-12-12T02:18:35.372Z,966.77
2017-12-12T02:19:42.161Z,966.83
2017-12-12T02:20:48.944Z,966.86
2017-12-12T02:21:55.588Z,966.86
2017-12-12T02:23:02.667Z,966.90
2017-12-12T02:24:09.401Z,966.99
2017-12-12T02:25:16.108Z,967.01
2017-12-12T02:26:22.902Z,967.01
2017-12-12T02:27:29.624Z,967.11
2017-12-12T02:28:36.885Z,967.19
2017-12-12T02:29:43.985Z,967.20
2017-12-12T02:30:50.648Z,967.20
2017-12-12T02:31:57.880Z,967.29
2017-12-12T02:33:04.697Z,967.32
2017-12-12T02:34:11.500Z,967.34
2017-12-12T02:35:18.759Z,967.41
2017-12-12T02:36:25.661Z,967.49
2017-12-12T02:37:32.249Z,967.49
2017-12-12T02:38:39.197Z,967.61
2017-12-12T02:39:45.708Z,967.70
2017-12-12T02:40:52.921Z,967.70
2017-12-12T02:41:59.585Z,967.73
2017-12-12T02:43:06.688Z,967.81
2017-12-12T02:44:13.442Z,967.82
2017-12-12T02:45:20.162Z,967.91
2017-12-12T02:46:27.065Z,967.94
2017-12-12T02:47:33.800Z,967.99
2017-12-12T02:48:40.973Z,968.10
2017-12-12T02:49:47.532Z,968.11
2017-12-12T02:50:54.329Z,968.17
2017-12-12T02:52:00.904Z,968.22
2017-12-12T02:53:07.656Z,968.26
2017-12-12T02:54:14.825Z,968.21
2017-12-12T02:55:21.837Z,968.31
2017-12-12T02:56:28.916Z,968.39
2017-12-12T02:57:35.812Z,968.46
2017-12-12T02:58:42.400Z,968.37
2017-12-12T02:59:49.065Z,968.45
2017-12-12T03:00:56.092Z,968.50
2017-12-12T03:02:03.337Z,968.54
2017-12-12T03:03:10.500Z,968.52
2017-12-12T03:04:17.212Z,968.59
2017-12-12T03:05:24.092Z,968.62
2017-12-12T03:06:30.816Z,968.56
2017-12-12T03:07:38.048Z,968.54
2017-12-12T03:08:44.971Z,968.64
2017-12-12T03:09:52.132Z,968.73
2017-12-12T03:10:59.488Z,968.75
2017-12-12T03:12:06.281Z,968.78
2017-12-12T03:13:13.616Z,968.74
2017-12-12T03:14:20.349Z,968.79
2017-12-12T03:15:27.570Z,968.92
2017-12-12T03:16:34.140Z,968.95
2017-12-12T03:17:40.748Z,969.02
2017-12-12T03:18:48.046Z,969.04
2017-12-12T03:19:55.040Z,969.09
2017-12-12T03:21:01.784Z,969.09
2017-12-12T03:22:08.770Z,969.27
2017-12-12T03:23:15.351Z,969.12
2017-12-12T03:24:22.543Z,969.21
2017-12-12T03:25:29.637Z,969.31
2017-12-12T03:26:36.700Z,969.36
2017-12-12T03:27:43.488Z,969.40
2017-12-12T03:28:50.638Z,969.41
2017-12-12T03:29:57.836Z,969.46
2017-12-12T03:31:04.444Z,969.55
2017-12-12T03:32:11.576Z,969.63
2017-12-12T03:33:18.557Z,969.62
2017-12-12T03:34:25.348Z,969.61
2017-12-12T03:35:31.844Z,969.68
2017-12-12T03:36:39.016Z,969.70
2017-12-12T03:37:45.656Z,969.63
2017-12-12T03:38:53.026Z,969.68
2017-12-12T03:39:59.804Z,969.71
2017-12-12T03:41:06.229Z,969.81
2017-12-12T03:42:13.445Z,969.87
2017-12-12T03:43:19.944Z,969.94
2017-12-12T03:44:27.292Z,969.97
2017-12-12T03:45:33.981Z,970.00
2017-12-12T03:46:40.720Z,970.11
2017-12-12T03:47:47.711Z,969.95
2017-12-12T03:48:54.500Z,970.15
2017-12-12T03:50:01.598Z,970.12
2017-12-12T03:51:08.477Z,970.14
2017-12-12T03:52:15.466Z,970.27
2017-12-12T03:53:22.681Z,970.23
2017-12-12T03:54:29.580Z,970.30
2017-12-12T03:55:36.113Z,970.29
2017-12-12T03:56:42.901Z,970.33
2017-12-12T03:57:50.066Z,970.33
2017-12-12T03:58:56.821Z,970.46
2017-12-12T04:00:03.536Z,970.49
2017-12-12T04:01:10.688Z,970.62
2017-12-12T04:02:17.501Z,970.68
2017-12-12T04:03:24.721Z,970.65
2017-12-12T04:04:31.193Z,970.67
2017-12-12T04:05:37.896Z,970.75
2017-12-12T04:06:45.052Z,970.80
2017-12-12T04:07:51.982Z,970.85
2017-12-12T04:08:58.984Z,970.88
2017-12-12T04:10:05.958Z,970.92
2017-12-12T04:11:12.685Z,970.99
2017-12-12T04:12:19.452Z,970.99
2017-12-12T04:13:26.517Z,971.02
2017-12-12T04:14:33.295Z,971.12
2017-12-12T04:15:39.892Z,971.09
2017-12-12T04:16:46.553Z,971.16
2017-12-12T04:17:53.768Z,971.21
2017-12-12T04:19:00.833Z,971.24
2017-12-12T04:20:08.021Z,971.28
2017-12-12T04:21:15.213Z,971.34
2017-12-12T04:22:21.748Z,971.34
2017-12-12T04:23:28.917Z,971.43
2017-12-12T04:24:35.997Z,971.53
2017-12-12T04:25:43.208Z,971.53
2017-12-12T04:26:49.736Z,971.61
2017-12-12T04:27:56.535Z,971.59
2017-12-12T04:29:03.692Z,971.62
2017-12-12T04:30:10.854Z,971.67
2017-12-12T04:31:17.557Z,971.77
2017-12-12T04:32:24.382Z,971.79
2017-12-12T04:33:31.062Z,971.87
2017-12-12T04:34:38.358Z,971.92
2017-12-12T04:35:45.020Z,971.98
2017-12-12T04:36:51.657Z,972.02
2017-12-12T04:37:58.989Z,971.98
2017-12-12T04:39:06.007Z,971.97
2017-12-12T04:40:12.657Z,972.10
2017-12-12T04:41:19.872Z,972.17
2017-12-12T04:42:27.037Z,972.18
2017-12-12T04:43:33.548Z,972.17
2017-12-12T04:44:40.707Z,972.29
2017-12-12T04:45:47.813Z,972.20
2017-12-12T04:46:54.521Z,972.41
2017-12-12T04:48:01.401Z,972.44
2017-12-12T04:49:08.312Z,972.45
2017-12-12T04:50:15.396Z,972.50
2017-12-12T04:51:22.371Z,972.49
2017-12-12T04:52:29.645Z,972.54
2017-12-12T04:53:36.392Z,972.54
2017-12-12T04:54:43.154Z,972.64
2017-12-12T04:55:50.284Z,972.64
2017-12-12T04:56:57.296Z,972.69
2017-12-12T04:58:04.580Z,972.70
2017-12-12T04:59:11.186Z,972.73
2017-12-12T05:00:18.323Z,972.70
2017-12-12T05:01:24.888Z,972.81
2017-12-12T05:02:31.906Z,972.79
2017-12-12T05:03:38.547Z,972.81
2017-12-12T05:04:45.370Z,972.86
2017-12-12T05:05:52.496Z,972.84
2017-12-12T05:06:59.652Z,972.88
2017-12-12T05:08:06.213Z,972.91
2017-12-12T05:09:13.368Z,973.03
2017-12-12T05:10:20.453Z,972.98
2017-12-12T05:11:27.482Z,973.09
2017-12-12T05:12:34.264Z,973.07
2017-12-12T05:13:41.440Z,973.23
2017-12-12T05:14:48.528Z,973.22
2017-12-12T05:15:55.426Z,973.25
2017-12-12T05:17:02.061Z,973.36
2017-12-12T05:18:09.039Z,973.29
2017-12-12T05:19:15.760Z,973.41
2017-12-12T05:20:22.971Z,973.38
2017-12-12T05:21:29.573Z,973.51
2017-12-12T05:22:36.500Z,973.53
2017-12-12T05:23:43.405Z,973.50
2017-12-12T05:24:50.529Z,973.51
2017-12-12T05:25:57.180Z,973.55
2017-12-12T05:27:04.436Z,973.66
2017-12-12T05:28:11.036Z,973.62
2017-12-12T05:29:18.027Z,973.66
2017-12-12T05:30:24.648Z,973.67
2017-12-12T05:31:31.575Z,973.76
2017-12-12T05:32:38.599Z,973.73
2017-12-12T05:33:45.663Z,973.83
2017-12-12T05:34:52.796Z,973.85
2017-12-12T05:35:59.427Z,973.90
2017-12-12T05:37:06.540Z,973.96
2017-12-12T05:38:13.581Z,973.96
2017-12-12T05:39:20.580Z,974.00
2017-12-12T05:40:27.700Z,974.05
2017-12-12T05:41:34.364Z,973.98
2017-12-12T05:42:41.406Z,974.02
2017-12-12T05:43:48.332Z,974.01
2017-12-12T05:44:55.584Z,974.04
2017-12-12T05:46:02.567Z,974.03
2017-12-12T05:47:09.640Z,974.10
2017-12-12T05:48:16.869Z,974.13
2017-12-12T05:49:23.772Z,974.13
2017-12-12T05:50:30.954Z,974.19
2017-12-12T05:51:38.349Z,974.20
2017-12-12T05:52:44.908Z,974.26
2017-12-12T05:53:51.785Z,974.25
2017-12-12T05:54:58.761Z,974.29
2017-12-12T05:56:05.917Z,974.32
2017-12-12T05:57:12.598Z,974.29
2017-12-12T05:58:19.673Z,974.33
2017-12-12T05:59:26.369Z,974.39
2017-12-12T06:00:33.684Z,974.36
2017-12-12T06:01:40.490Z,974.43
2017-12-12T06:02:47.650Z,974.45
2017-12-12T06:03:54.336Z,974.46
2017-12-12T06:05:01.128Z,974.58
2017-12-12T06:06:07.941Z,974.55
2017-12-12T06:07:14.603Z,974.61
2017-12-12T06:08:21.552Z,974.69
2017-12-12T06:09:28.214Z,974.73
2017-12-12T06:10:34.983Z,974.79
2017-12-12T06:11:41.971Z,974.86
2017-12-12T06:12:48.786Z,974.87
2017-12-12T06:13:56.174Z,974.79
2017-12-12T06:15:02.798Z,974.86
2017-12-12T06:16:09.638Z,974.83
2017-12-12T06:17:16.320Z,974.91
2017-12-12T06:18:23.060Z,974.92
2017-12-12T06:19:30.299Z,975.01
2017-12-12T06:20:37.025Z,975.14
2017-12-12T06:21:44.113Z,975.07
2017-12-12T06:22:50.836Z,975.11
2017-12-12T06:23:57.666Z,975.21
2017-12-12T06:25:04.476Z,975.18
2017-12-12T06:26:11.431Z,975.21
2017-12-12T06:27:17.992Z,975.15
2017-12-12T06:28:25.185Z,975.25
2017-12-12T06:29:31.716Z,975.18
2017-12-12T06:30:38.756Z,975.17
2017-12-12T06:31:45.860Z,975.24
2017-12-12T06:32:52.984Z,975.28
2017-12-12T06:33:59.931Z,975.34
2017-12-12T06:35:07.039Z,975.43
2017-12-12T06:36:13.927Z,975.40
2017-12-12T06:37:20.822Z,975.48
2017-12-12T06:38:27.579Z,975.48
2017-12-12T06:39:34.700Z,975.63
2017-12-12T06:40:41.399Z,975.62
2017-12-12T06:41:48.320Z,975.65
2017-12-12T06:42:55.298Z,975.62
2017-12-12T06:44:02.043Z,975.71
2017-12-12T06:45:09.090Z,975.71
2017-12-12T06:46:16.261Z,975.73
2017-12-12T06:47:22.871Z,975.74
2017-12-12T06:48:30.143Z,975.76
2017-12-12T06:49:36.790Z,975.81
2017-12-12T06:50:43.564Z,975.84
2017-12-12T06:51:50.211Z,975.85
2017-12-12T06:52:57.297Z,975.83
2017-12-12T06:54:04.232Z,975.81
2017-12-12T06:55:10.914Z,975.84
2017-12-12T06:56:17.893Z,975.93
2017-12-12T06:57:24.688Z,975.94
2017-12-12T06:58:32.035Z,976.00
2017-12-12T06:59:39.088Z,975.90
2017-12-12T07:00:46.170Z,976.08
2017-12-12T07:01:52.961Z,976.01
2017-12-12T07:02:59.821Z,976.03
2017-12-12T07:04:06.532Z,976.12
2017-12-12T07:05:13.373Z,976.05
2017-12-12T07:06:20.622Z,976.09
2017-12-12T07:07:27.297Z,976.15
2017-12-12T07:08:34.320Z,976.09
2017-12-12T07:09:41.061Z,976.09
2017-12-12T07:10:47.978Z,976.19
2017-12-12T07:11:54.855Z,976.12
2017-12-12T07:13:01.696Z,976.16
2017-12-12T07:14:08.388Z,976.16
2017-12-12T07:15:15.472Z,976.11
2017-12-12T07:16:22.565Z,976.19
2017-12-12T07:17:29.207Z,976.28
2017-12-12T07:18:36.415Z,976.30
2017-12-12T07:19:43.061Z,976.25
2017-12-12T07:20:50.109Z,976.25
2017-12-12T07:21:57.497Z,976.36
2017-12-12T07:23:04.551Z,976.38
2017-12-12T07:24:11.552Z,976.37
2017-12-12T07:25:18.300Z,976.37
2017-12-12T07:26:25.464Z,976.38
2017-12-12T07:27:32.216Z,976.40
2017-12-12T07:28:39.396Z,976.49
2017-12-12T07:29:46.422Z,976.43
2017-12-12T07:30:53.432Z,976.44
2017-12-12T07:32:00.501Z,976.55
2017-12-12T07:33:07.576Z,976.56
2017-12-12T07:34:14.797Z,976.68
2017-12-12T07:35:21.390Z,976.68
2017-12-12T07:36:28.517Z,976.75
2017-12-12T07:37:35.532Z,976.77
2017-12-12T07:38:42.604Z,976.80
2017-12-12T07:39:49.712Z,976.89
2017-12-12T07:40:56.836Z,976.86
2017-12-12T07:42:03.460Z,976.86
2017-12-12T07:43:10.525Z,976.95
2017-12-12T07:44:17.645Z,976.94
2017-12-12T07:45:24.820Z,977.04
2017-12-12T07:46:31.837Z,977.03
2017-12-12T07:47:38.588Z,977.11
2017-12-12T07:48:45.554Z,976.99
2017-12-12T07:49:52.646Z,977.12
2017-12-12T07:50:59.551Z,977.15
2017-12-12T07:52:06.626Z,977.13
2017-12-12T07:53:13.459Z,977.22
2017-12-12T07:54:20.100Z,977.19
2017-12-12T07:55:26.909Z,977.19
2017-12-12T07:56:33.673Z,977.22
2017-12-12T07:57:40.752Z,977.28
2017-12-12T07:58:47.875Z,977.26
2017-12-12T07:59:54.605Z,977.30
2017-12-12T08:01:01.677Z,977.30
2017-12-12T08:02:08.729Z,977.31
2017-12-12T08:03:15.649Z,977.35
2017-12-12T08:04:22.634Z,977.40
2017-12-12T08:05:29.217Z,977.37
2017-12-12T08:06:36.163Z,977.39
2017-12-12T08:07:43.269Z,977.49
2017-12-12T08:08:50.433Z,977.41
2017-12-12T08:09:57.517Z,977.57
2017-12-12T08:11:04.664Z,977.53
2017-12-12T08:12:11.653Z,977.52
2017-12-12T08:13:18.637Z,977.49
2017-12-12T08:14:25.644Z,977.57
2017-12-12T08:15:32.279Z,977.56
2017-12-12T08:16:39.480Z,977.58
2017-12-12T08:17:46.620Z,977.53
2017-12-12T08:18:53.653Z,977.56
2017-12-12T08:20:00.747Z,977.62
2017-12-12T08:21:07.500Z,977.70
2017-12-12T08:22:14.738Z,977.66
2017-12-12T08:23:21.298Z,977.71
2017-12-12T08:24:28.399Z,977.72
2017-12-12T08:25:35.608Z,977.72
2017-12-12T08:26:42.717Z,977.66
2017-12-12T08:27:49.789Z,977.83
2017-12-12T08:28:56.998Z,977.81
2017-12-12T08:30:04.080Z,977.83
2017-12-12T08:31:11.161Z,977.83
2017-12-12T08:32:18.322Z,977.88
2017-12-12T08:33:25.006Z,977.84
2017-12-12T08:34:32.193Z,977.94
2017-12-12T08:35:39.313Z,977.94
2017-12-12T08:36:46.485Z,977.94
2017-12-12T08:37:53.681Z,977.97
2017-12-12T08:39:00.193Z,978.00
2017-12-12T08:40:06.973Z,978.08
2017-12-12T08:41:14.208Z,978.11
2017-12-12T08:42:21.213Z,978.09
2017-12-12T08:43:28.424Z,978.12
2017-12-12T08:44:35.604Z,978.15
2017-12-12T08:45:42.904Z,978.18
2017-12-12T08:46:49.548Z,978.12
2017-12-12T08:47:56.212Z,978.25
2017-12-12T08:49:02.885Z,978.21
2017-12-12T08:50:09.853Z,978.30
2017-12-12T08:51:17.013Z,978.29
2017-12-12T08:52:24.204Z,978.22
2017-12-12T08:53:31.346Z,978.31
2017-12-12T08:54:37.858Z,978.41
2017-12-12T08:55:45.061Z,978.31
2017-12-12T08:56:51.621Z,978.28
2017-12-12T08:57:58.560Z,978.43
2017-12-12T08:59:05.627Z,978.40
2017-12-12T09:00:12.764Z,978.46
2017-12-12T09:01:19.528Z,978.51
2017-12-12T09:02:26.711Z,978.53
2017-12-12T09:03:33.870Z,978.48
2017-12-12T09:04:40.411Z,978.60
2017-12-12T09:05:47.215Z,978.57
2017-12-12T09:06:53.717Z,978.69
2017-12-12T09:08:00.705Z,978.70
2017-12-12T09:09:07.951Z,978.71
2017-12-12T09:10:14.782Z,978.74
2017-12-12T09:11:21.661Z,978.76
2017-12-12T09:12:28.292Z,978.79
2017-12-12T09:13:34.893Z,978.81
2017-12-12T09:14:41.834Z,978.83
2017-12-12T09:15:48.304Z,978.88
2017-12-12T09:16:55.196Z,978.81
2017-12-12T09:18:02.093Z,978.90
2017-12-12T09:19:08.837Z,978.83
2017-12-12T09:20:15.789Z,978.96
2017-12-12T09:21:22.751Z,979.01
2017-12-12T09:22:29.172Z,978.99
2017-12-12T09:23:36.300Z,979.02
2017-12-12T09:24:43.468Z,978.98
2017-12-12T09:25:50.413Z,978.99
2017-12-12T09:26:57.264Z,978.93
2017-12-12T09:28:04.409Z,979.00
2017-12-12T09:29:11.322Z,978.96
2017-12-12T09:30:18.411Z,979.03
2017-12-12T09:31:25.669Z,979.12
2017-12-12T09:32:32.676Z,979.09
2017-12-12T09:33:39.597Z,979.05
2017-12-12T09:34:46.509Z,979.11
2017-12-12T09:35:53.644Z,979.14
2017-12-12T09:37:00.849Z,979.14
2017-12-12T09:38:07.829Z,979.18
2017-12-12T09:39:14.942Z,979.19
2017-12-12T09:40:21.480Z,979.20
2017-12-12T09:41:28.618Z,979.21
2017-12-12T09:42:35.617Z,979.21
2017-12-12T09:43:42.832Z,979.20
2017-12-12T09:44:49.796Z,979.33
2017-12-12T09:45:56.986Z,979.34
2017-12-12T09:47:03.716Z,979.29
2017-12-12T09:48:10.652Z,979.29
2017-12-12T09:49:17.766Z,979.27
2017-12-12T09:50:24.705Z,979.30
2017-12-12T09:51:31.859Z,979.34
2017-12-12T09:52:38.825Z,979.38
2017-12-12T09:53:45.576Z,979.33
2017-12-12T09:54:52.177Z,979.42
2017-12-12T09:55:59.097Z,979.43
2017-12-12T09:57:06.089Z,979.57
2017-12-12T09:58:13.078Z,979.47
2017-12-12T09:59:20.164Z,979.49
2017-12-12T10:00:28.120Z,979.50
2017-12-12T10:01:33.964Z,979.50
2017-12-12T10:02:40.639Z,979.52
2017-12-12T10:03:47.736Z,979.50
2017-12-12T10:04:55.025Z,979.58
2017-12-12T10:06:03.305Z,979.47
2017-12-12T10:07:09.244Z,979.64
2017-12-12T10:08:16.386Z,979.63
2017-12-12T10:09:22.982Z,979.64
2017-12-12T10:10:30.157Z,979.61
2017-12-12T10:11:37.220Z,979.57
2017-12-12T10:12:44.090Z,979.64
2017-12-12T10:13:51.777Z,979.63
2017-12-12T10:14:58.127Z,979.61
2017-12-12T10:16:05.023Z,979.62
2017-12-12T10:17:12.231Z,979.67
2017-12-12T10:18:19.160Z,979.60
2017-12-12T10:19:26.097Z,979.62
2017-12-12T10:20:32.348Z,979.67
2017-12-12T10:21:39.131Z,979.61
2017-12-12T10:22:46.206Z,979.72
2017-12-12T10:23:53.216Z,979.72
2017-12-12T10:25:00.116Z,979.82
2017-12-12T10:26:07.113Z,979.74
2017-12-12T10:27:13.915Z,979.86
2017-12-12T10:28:20.751Z,979.77
2017-12-12T10:29:27.872Z,979.90
2017-12-12T10:30:34.996Z,979.86
2017-12-12T10:31:41.749Z,979.93
2017-12-12T10:32:48.789Z,979.95
2017-12-12T10:33:55.897Z,979.96
2017-12-12T10:35:03.066Z,979.99
2017-12-12T10:36:10.124Z,979.96
2017-12-12T10:37:16.898Z,979.99
2017-12-12T10:38:23.988Z,979.99
2017-12-12T10:39:31.140Z,979.98
2017-12-12T10:40:38.159Z,980.07
2017-12-12T10:41:45.336Z,980.05
2017-12-12T10:42:52.211Z,980.04
2017-12-12T10:43:59.201Z,980.00
2017-12-12T10:45:05.964Z,980.05
2017-12-12T10:46:12.777Z,980.11
2017-12-12T10:47:19.472Z,980.14
2017-12-12T10:48:26.227Z,980.13
2017-12-12T10:49:33.278Z,980.12
2017-12-12T10:50:40.479Z,980.17
2017-12-12T10:51:47.555Z,980.16
2017-12-12T10:52:54.625Z,980.15
2017-12-12T10:54:01.604Z,980.15
2017-12-12T10:55:08.416Z,980.14
2017-12-12T10:56:15.541Z,980.27
2017-12-12T10:57:22.672Z,980.30
2017-12-12T10:58:29.776Z,980.29
2017-12-12T10:59:36.948Z,980.36
2017-12-12T11:00:43.757Z,980.35
2017-12-12T11:01:50.809Z,980.31
2017-12-12T11:02:57.514Z,980.40
2017-12-12T11:04:04.072Z,980.32
2017-12-12T11:05:10.822Z,980.39
2017-12-12T11:06:17.582Z,980.39
2017-12-12T11:07:24.896Z,980.43
2017-12-12T11:08:31.906Z,980.45
2017-12-12T11:09:38.761Z,980.49
2017-12-12T11:10:46.020Z,980.44
2017-12-12T11:11:52.696Z,980.42
2017-12-12T11:12:59.477Z,980.50
2017-12-12T11:14:06.785Z,980.51
2017-12-12T11:15:13.345Z,980.50
2017-12-12T11:16:20.556Z,980.55
2017-12-12T11:17:27.044Z,980.50
2017-12-12T11:18:33.911Z,980.58
2017-12-12T11:19:40.796Z,980.56
2017-12-12T11:20:47.897Z,980.55
2017-12-12T11:21:54.396Z,980.55
2017-12-12T11:23:01.404Z,980.54
2017-12-12T11:24:08.183Z,980.60
2017-12-12T11:25:15.320Z,980.64
2017-12-12T11:26:22.027Z,980.59
2017-12-12T11:27:28.817Z,980.57
2017-12-12T11:28:35.523Z,980.62
2017-12-12T11:29:42.423Z,980.53
2017-12-12T11:30:49.644Z,980.55
2017-12-12T11:31:56.528Z,980.58
2017-12-12T11:33:03.297Z,980.65
2017-12-12T11:34:10.308Z,980.64
2017-12-12T11:35:17.045Z,980.65
2017-12-12T11:36:24.074Z,980.63
2017-12-12T11:37:31.167Z,980.72
2017-12-12T11:38:38.205Z,980.74
2017-12-12T11:39:44.840Z,980.84
2017-12-12T11:40:51.876Z,980.69
2017-12-12T11:41:58.850Z,980.82
2017-12-12T11:43:06.197Z,980.81
2017-12-12T11:44:12.648Z,980.86
2017-12-12T11:45:19.408Z,980.78
2017-12-12T11:46:29.553Z,980.92
2017-12-12T11:47:33.543Z,980.89
2017-12-12T11:48:40.452Z,980.88
2017-12-12T11:49:46.981Z,980.95
2017-12-12T11:50:53.784Z,981.02
2017-12-12T11:52:00.755Z,981.01
2017-12-12T11:53:07.326Z,981.00
2017-12-12T11:54:14.431Z,981.00
2017-12-12T11:55:21.392Z,981.00
2017-12-12T11:56:28.435Z,981.06
2017-12-12T11:57:35.201Z,980.99
2017-12-12T11:58:42.365Z,980.99
2017-12-12T11:59:49.481Z,981.02
2017-12-12T12:00:56.451Z,981.01
2017-12-12T12:02:03.451Z,981.10
2017-12-12T12:03:10.484Z,981.07
2017-12-12T12:04:17.133Z,981.15
2017-12-12T12:05:24.088Z,981.15
2017-12-12T12:06:31.113Z,981.13
2017-12-12T12:07:38.117Z,981.12
2017-12-12T12:08:45.133Z,981.08
2017-12-12T12:09:52.170Z,981.14
2017-12-12T12:10:59.233Z,981.14
2017-12-12T12:12:06.280Z,981.14
2017-12-12T12:13:13.273Z,981.12
2017-12-12T12:14:20.289Z,981.16
2017-12-12T12:15:27.490Z,981.24
2017-12-12T12:16:34.060Z,981.27
2017-12-12T12:17:41.133Z,981.30
2017-12-12T12:18:48.101Z,981.32
2017-12-12T12:19:55.084Z,981.33
2017-12-12T12:21:02.037Z,981.39
2017-12-12T12:22:09.009Z,981.40
2017-12-12T12:23:16.200Z,981.37
2017-12-12T12:24:23.284Z,981.43
2017-12-12T12:25:30.193Z,981.36
2017-12-12T12:26:36.852Z,981.38
2017-12-12T12:27:43.836Z,981.43
2017-12-12T12:28:50.802Z,981.44
2017-12-12T12:29:57.872Z,981.45
2017-12-12T12:31:04.823Z,981.57
2017-12-12T12:32:11.866Z,981.51
2017-12-12T12:33:18.916Z,981.58
2017-12-12T12:34:25.932Z,981.45
2017-12-12T12:35:33.085Z,981.53
2017-12-12T12:36:40.031Z,981.61
2017-12-12T12:37:47.301Z,981.55
2017-12-12T12:38:54.257Z,981.57
2017-12-12T12:40:01.326Z,981.62
2017-12-12T12:41:08.377Z,981.48
2017-12-12T12:42:15.517Z,981.62
2017-12-12T12:43:22.625Z,981.64
2017-12-12T12:44:29.642Z,981.60
2017-12-12T12:45:36.669Z,981.70
2017-12-12T12:46:43.689Z,981.65
2017-12-12T12:47:51.032Z,981.68
2017-12-12T12:48:57.572Z,981.70
2017-12-12T12:50:04.349Z,981.75
2017-12-12T12:51:11.557Z,981.82
2017-12-12T12:52:18.320Z,981.76
2017-12-12T12:53:25.556Z,981.82
2017-12-12T12:54:32.348Z,981.86
2017-12-12T12:55:39.337Z,981.81
2017-12-12T12:56:46.344Z,981.88
2017-12-12T12:57:53.479Z,981.88
2017-12-12T12:59:00.552Z,981.82
2017-12-12T13:00:07.585Z,981.81
2017-12-12T13:01:14.718Z,981.93
2017-12-12T13:02:21.710Z,981.93
2017-12-12T13:03:28.822Z,981.96
2017-12-12T13:04:35.894Z,981.89
2017-12-12T13:05:42.769Z,981.89
2017-12-12T13:06:49.713Z,981.89
2017-12-12T13:07:56.772Z,981.95
2017-12-12T13:09:03.842Z,981.88
2017-12-12T13:10:10.860Z,982.02
2017-12-12T13:11:17.898Z,981.97
2017-12-12T13:12:24.932Z,982.02
2017-12-12T13:13:31.878Z,981.97
2017-12-12T13:14:39.057Z,981.97
2017-12-12T13:15:46.210Z,981.98
2017-12-12T13:16:53.234Z,982.08
2017-12-12T13:18:00.068Z,981.96
2017-12-12T13:19:07.076Z,981.99
2017-12-12T13:20:14.071Z,981.98
2017-12-12T13:21:21.110Z,981.97
2017-12-12T13:22:28.020Z,981.98
2017-12-12T13:23:35.001Z,981.97
2017-12-12T13:24:41.992Z,982.00
2017-12-12T13:25:48.890Z,981.96
2017-12-12T13:26:55.963Z,981.95
2017-12-12T13:28:03.012Z,981.98
2017-12-12T13:29:10.030Z,982.02
2017-12-12T13:30:16.992Z,982.08
2017-12-12T13:31:23.691Z,982.02
2017-12-12T13:32:30.687Z,982.07
2017-12-12T13:33:37.864Z,982.12
2017-12-12T13:34:44.980Z,982.15
2017-12-12T13:35:51.870Z,982.17
2017-12-12T13:36:59.056Z,982.23
2017-12-12T13:38:06.104Z,982.11
2017-12-12T13:39:13.169Z,982.23
2017-12-12T13:40:20.296Z,982.29
2017-12-12T13:41:27.234Z,982.21
2017-12-12T13:42:34.292Z,982.23
2017-12-12T13:43:41.192Z,982.22
2017-12-12T13:44:48.318Z,982.27
2017-12-12T13:45:55.374Z,982.23
2017-12-12T13:47:02.364Z,982.25
2017-12-12T13:48:09.219Z,982.23
2017-12-12T13:49:16.344Z,982.22
2017-12-12T13:50:23.406Z,982.25
2017-12-12T13:51:30.364Z,982.22
2017-12-12T13:52:37.332Z,982.24
2017-12-12T13:53:44.366Z,982.35
2017-12-12T13:54:51.356Z,982.32